Terminal Aerodrome Forecast
Issued by NWS Rapid City, SD

Home | Current Version | Previous Version | Graphics & Text | Print | Product List | Glossary On
Versions: 1 2 3 4 5 6 7 8 9 10 11 12 13 14 15 16
363
FTUS43 KUNR 240520
TAFRAP
TAF
KRAP 240520Z 2406/2506 35015G25KT P6SM SCT050 BKN120
     FM241800 01011KT P6SM SCT250=

USA.gov is the U.S. government's official web portal to all federal, state and local government web resources and services.